Crawfordville, Florida
Current Conditions -  °F | °C
As of 1:14 PM on Monday 24 Nov 2014 (Local Time) from KTLH Reporting Station
Light Rain Light Rain  
Wind Chill: 72°   Ceiling: 1000
Heat Index: 72°   Visibility: 2mi
Dew Point: 69°   Wind: 5mph
Humidity: 91%   Direction: 160°SSE
Pressure: 29.86"   Gusts: NA
Location:  30.18°N, 84.38°W
Report Text: KTLH 241814Z 16004KT 2SM -RA BR BKN010 OVC020 22/21 A2986 RMK AO2 SFC VIS 6 RAB07 P0000 T02220206 $
Loading
Personal Weather Stations






























Interactive Weather Map New forecast layout! Learn more

10-Day Weather Forecast

Advertisements
Track Severe Weather on mobile